Tok, Alaska
Current Conditions -  °F | °C
As of 6:53 PM on Tuesday 21 Oct 2014 (Local Time) from PAOR Reporting Station
Few Clouds Few Clouds  
Wind Chill: 26°   Ceiling: Unl
Heat Index: 26°   Visibility: 10mi
Dew Point: 23°   Wind: 3mph
Humidity: 88%   Direction: 280°W
Pressure: 29.36"   Gusts: NA
Location:  63.33°N, 142.99°W
Report Text: PAOR 220253Z 28003KT 10SM FEW050 FEW180 M03/M05 A2936 RMK AO2 SLP976 T10331050 53003
Loading
Personal Weather Stations






























Interactive Weather Map
Tropical Storm Tracking
New forecast layout! Learn more

10-Day Weather Forecast

Advertisements
Track Severe Weather on mobile